Flight Track Log - Related Links

Times and Time Zones

All times are in EDT time to prevent confusion due to time zone crossing. See the LXJ444 flight status page for this flight to view local times or setup timezone preferences in your user account.

Time Position Orientation Groundspeed Altitude Reporting Facility
EDT Latitude Longitude Course Direction KTS MPH feet Rate Location/Type
Fri 12:47:52 PM 33.1833 -96.5833 248° West 183 211 1,200  Level Dallas / Fort Worth TRACON
Fri 12:49:11 PM 33.1667 -96.6333 248° West 260 299 4,200 2,982 Climbing Dallas / Fort Worth TRACON
Fri 12:50:39 PM 33.0461 -96.6453 185° South 240 276 9,500 3,284 Climbing Fort Worth Center
Fri 12:51:39 PM 32.9503 -96.6683 191° South 330 380 12,300 2,650 Climbing Fort Worth Center
Fri 12:52:39 PM 32.8397 -96.6939 191° South 384 442 14,800 3,000 Climbing Fort Worth Center
Fri 12:53:39 PM 32.7208 -96.7194 190° South 431 496 18,300 3,050 Climbing Fort Worth Center
Fri 12:54:39 PM 32.6042 -96.7450 190° South 436 502 20,900 1,350 Climbing Fort Worth Center
Fri 12:55:39 PM 32.4872 -96.7731 191° South 430 495 21,000 50 Climbing Fort Worth Center
Fri 12:56:39 PM 32.3683 -96.7986 190° South 430 495 21,000  Level Fort Worth Center
Fri 12:57:39 PM 32.2453 -96.8017 181° South 435 501 21,000  Level Fort Worth Center
Fri 12:58:39 PM 32.1344 -96.7583 162° South 440 506 21,000  Level Fort Worth Center
Fri 12:59:39 PM 32.0025 -96.7103 163° South 451 519 21,000  Level Fort Worth Center
Fri 01:00:39 PM 31.8811 -96.6622 161° South 461 531 21,000  Level Fort Worth Center
Fri 01:01:39 PM 31.7597 -96.6119 161° South 466 536 21,000  Level Fort Worth Center
Fri 01:03:28 PM 31.5392 -96.5222 161° South 461 531 21,000  Level Houston Center
Fri 01:04:30 PM 31.4169 -96.4744 162° South 458 527 21,000  Level Houston Center
Fri 01:05:32 PM 31.2936 -96.4283 162° South 458 527 21,000  Level Houston Center
Fri 01:06:35 PM 31.1711 -96.3758 160° South 465 535 21,000 -864 Level Houston Center
Fri 01:07:37 PM 31.0606 -96.2936 147° Southeast 466 536 19,200 -1,984 Descending Houston Center
Fri 01:08:39 PM 30.9481 -96.2147 149° Southeast 463 533 16,900 -2,323 Descending Houston Center
Fri 01:09:41 PM 30.8414 -96.1383 148° Southeast 449 517 14,400 -2,419 Descending Houston Center
Fri 01:10:43 PM 30.7453 -96.0708 149° Southeast 407 468 11,900 -2,434 Descending Houston Center
Fri 01:11:27 PM 30.6678 -96.0153 148° Southeast 365 420 10,100 -2,419 Descending Houston Center
Fri 01:11:45 PM 30.6442 -95.9978 147° Southeast 369 425 9,400 -900 Descending Houston Center
Fri 01:12:47 PM 30.5644 -95.9422 149° Southeast 337 388 8,900 -195 Descending Houston Center
Fri 01:13:48 PM 30.4822 -95.8839 149° Southeast 332 382 9,000 -295 Climbing Houston Center
Fri 01:14:49 PM 30.4050 -95.8153 143° Southeast 337 388 8,300 -1,128 Descending Houston Center
Fri 01:15:45 PM 30.3469 -95.7519 137° Southeast 316 364 6,800 -1,846 Descending Houston Center
Fri 01:16:46 PM 30.2981 -95.6731 126° Southeast 284 327 4,700 -2,079 Descending Houston Center
Fri 01:17:52 PM 30.2769 -95.5786 104° East 270 311 2,400 -2,091 Descending Houston Center

Login

Don't have an account? Register now (free) for customized features, flight alerts, and more!